createdAt,value
2018-11-05T00:00:39.732Z,9.77
2018-11-05T00:03:08.748Z,7.00
2018-11-05T00:05:37.391Z,9.80
2018-11-05T00:08:06.449Z,6.93
2018-11-05T00:10:34.961Z,14.30
2018-11-05T00:13:03.429Z,7.17
2018-11-05T00:15:32.140Z,11.70
2018-11-05T00:18:01.180Z,10.90
2018-11-05T00:20:29.651Z,7.10
2018-11-05T00:22:58.304Z,11.57
2018-11-05T00:25:26.828Z,9.87
2018-11-05T00:27:55.857Z,5.53
2018-11-05T00:30:24.412Z,9.73
2018-11-05T00:32:52.946Z,9.97
2018-11-05T00:35:21.399Z,9.07
2018-11-05T00:37:50.393Z,9.43
2018-11-05T00:40:18.926Z,7.60
2018-11-05T00:42:47.414Z,10.67
2018-11-05T00:45:16.202Z,10.40
2018-11-05T00:47:45.093Z,7.77
2018-11-05T00:50:14.882Z,14.00
2018-11-05T00:52:43.469Z,9.17
2018-11-05T00:55:12.568Z,9.80
2018-11-05T00:57:41.037Z,7.40
2018-11-05T01:00:11.981Z,11.73
2018-11-05T01:02:41.170Z,8.00
2018-11-05T01:05:10.825Z,7.20
2018-11-05T01:07:40.734Z,9.97
2018-11-05T01:10:10.184Z,12.70
2018-11-05T01:12:38.688Z,6.53
2018-11-05T01:15:09.564Z,7.10
2018-11-05T01:17:38.239Z,8.70
2018-11-05T01:20:07.540Z,13.27
2018-11-05T01:22:36.170Z,7.97
2018-11-05T01:25:05.122Z,9.73
2018-11-05T01:27:33.595Z,14.17
2018-11-05T01:30:02.264Z,13.70
2018-11-05T01:32:30.982Z,5.57
2018-11-05T01:34:59.421Z,9.77
2018-11-05T01:37:28.279Z,8.70
2018-11-05T01:39:56.977Z,7.70
2018-11-05T01:42:25.445Z,11.93
2018-11-05T01:44:54.334Z,7.27
2018-11-05T01:47:22.859Z,9.63
2018-11-05T01:49:51.328Z,6.17
2018-11-05T01:52:19.899Z,8.67
2018-11-05T01:54:48.751Z,11.57
2018-11-05T01:57:17.213Z,9.50
2018-11-05T01:59:46.132Z,9.13
2018-11-05T02:02:14.885Z,9.73
2018-11-05T02:04:43.329Z,12.27
2018-11-05T02:07:12.189Z,5.53
2018-11-05T02:09:40.765Z,8.07
2018-11-05T02:12:09.219Z,11.70
2018-11-05T02:14:37.813Z,11.77
2018-11-05T02:17:06.370Z,6.77
2018-11-05T02:19:34.959Z,9.57
2018-11-05T02:22:03.565Z,9.07
2018-11-05T02:24:32.170Z,8.57
2018-11-05T02:27:00.695Z,9.57
2018-11-05T02:29:29.273Z,5.53
2018-11-05T02:32:04.702Z,8.77
2018-11-05T02:34:33.574Z,7.83
2018-11-05T02:37:02.051Z,7.67
2018-11-05T02:39:30.584Z,8.80
2018-11-05T02:41:59.687Z,9.83
2018-11-05T02:44:28.134Z,5.07
2018-11-05T02:46:57.143Z,5.87
2018-11-05T02:49:25.989Z,7.80
2018-11-05T02:51:54.492Z,6.03
2018-11-05T02:54:23.543Z,6.60
2018-11-05T02:56:52.662Z,6.80
2018-11-05T02:59:21.101Z,4.40
2018-11-05T03:01:49.672Z,8.03
2018-11-05T03:04:18.722Z,10.23
2018-11-05T03:06:47.217Z,5.37
2018-11-05T03:09:15.849Z,3.13
2018-11-05T03:11:44.818Z,9.63
2018-11-05T03:14:13.249Z,10.47
2018-11-05T03:16:41.900Z,7.37
2018-11-05T03:19:10.838Z,8.03
2018-11-05T03:21:39.346Z,7.07
2018-11-05T03:24:07.966Z,6.40
2018-11-05T03:26:36.950Z,7.93
2018-11-05T03:29:05.705Z,5.87
2018-11-05T03:31:34.634Z,12.90
2018-11-05T03:34:03.566Z,3.20
2018-11-05T03:36:32.019Z,7.60
2018-11-05T03:39:00.570Z,7.73
2018-11-05T03:41:29.930Z,8.40
2018-11-05T03:43:58.777Z,6.97
2018-11-05T03:46:27.741Z,5.20
2018-11-05T03:48:56.626Z,8.30
2018-11-05T03:51:25.085Z,4.13
2018-11-05T03:53:53.658Z,5.50
2018-11-05T03:56:22.323Z,6.37
2018-11-05T03:58:50.739Z,6.87
2018-11-05T04:01:19.446Z,8.57
2018-11-05T04:03:48.400Z,6.20
2018-11-05T04:06:16.858Z,5.07
2018-11-05T04:08:45.414Z,6.80
2018-11-05T04:11:14.449Z,6.87
2018-11-05T04:13:42.877Z,5.50
2018-11-05T04:16:11.643Z,8.27
2018-11-05T04:18:40.517Z,7.47
2018-11-05T04:21:08.966Z,7.70
2018-11-05T04:23:37.644Z,10.07
2018-11-05T04:26:06.309Z,8.37
2018-11-05T04:28:34.742Z,7.67
2018-11-05T04:31:03.693Z,9.33
2018-11-05T04:33:32.455Z,8.10
2018-11-05T04:36:00.931Z,11.87
2018-11-05T04:38:29.523Z,12.00
2018-11-05T04:40:58.369Z,9.90
2018-11-05T04:43:26.820Z,5.83
2018-11-05T04:45:55.545Z,6.33
2018-11-05T04:48:24.433Z,12.47
2018-11-05T04:50:52.893Z,9.50
2018-11-05T04:53:21.437Z,9.10
2018-11-05T04:55:50.183Z,8.87
2018-11-05T04:58:18.624Z,9.57
2018-11-05T05:00:47.325Z,6.63
2018-11-05T05:03:16.586Z,9.10
2018-11-05T05:05:45.058Z,5.93
2018-11-05T05:08:13.966Z,12.90
2018-11-05T05:10:42.593Z,11.17
2018-11-05T05:13:11.045Z,8.17
2018-11-05T05:15:39.569Z,10.40
2018-11-05T05:18:08.354Z,8.17
2018-11-05T05:20:36.828Z,7.80
2018-11-05T05:23:06.017Z,7.87
2018-11-05T05:25:34.409Z,6.90
2018-11-05T05:28:02.899Z,7.63
2018-11-05T05:30:31.444Z,10.33
2018-11-05T05:33:00.098Z,11.20
2018-11-05T05:35:28.502Z,8.27
2018-11-05T05:37:57.262Z,7.33
2018-11-05T05:40:25.860Z,7.23
2018-11-05T05:42:54.317Z,11.43
2018-11-05T05:45:23.430Z,6.33
2018-11-05T05:47:52.258Z,9.40
2018-11-05T05:50:20.900Z,10.90
2018-11-05T05:52:49.964Z,10.63
2018-11-05T05:55:19.627Z,13.53
2018-11-05T05:57:48.254Z,9.03
2018-11-05T06:00:17.969Z,13.67
2018-11-05T06:02:46.845Z,8.83
2018-11-05T06:05:15.891Z,7.33
2018-11-05T06:07:44.558Z,10.00
2018-11-05T06:10:14.488Z,15.43
2018-11-05T06:12:42.966Z,13.50
2018-11-05T06:15:13.277Z,15.07
2018-11-05T06:17:41.902Z,11.83
2018-11-05T06:20:13.046Z,14.07
2018-11-05T06:22:41.968Z,10.53
2018-11-05T06:25:10.598Z,16.10
2018-11-05T06:27:39.245Z,16.67
2018-11-05T06:30:14.050Z,15.13
2018-11-05T06:32:43.073Z,18.43
2018-11-05T06:35:12.422Z,12.77
2018-11-05T06:37:41.647Z,13.53
2018-11-05T06:40:12.525Z,16.10
2018-11-05T06:42:41.332Z,13.27
2018-11-05T06:45:12.664Z,9.53
2018-11-05T06:47:42.265Z,13.33
2018-11-05T06:50:13.385Z,17.13
2018-11-05T06:52:42.630Z,11.13
2018-11-05T06:55:12.036Z,11.97
2018-11-05T06:57:41.155Z,17.27
2018-11-05T07:00:12.690Z,16.13
2018-11-05T07:02:41.451Z,14.83
2018-11-05T07:05:10.009Z,13.03
2018-11-05T07:07:38.952Z,17.43
2018-11-05T07:10:09.037Z,14.43
2018-11-05T07:12:38.289Z,13.83
2018-11-05T07:15:08.435Z,15.17
2018-11-05T07:17:37.021Z,16.73
2018-11-05T07:20:08.040Z,13.40
2018-11-05T07:22:36.528Z,18.20
2018-11-05T07:25:06.386Z,18.13
2018-11-05T07:27:35.112Z,17.63
2018-11-05T07:30:04.033Z,19.13
2018-11-05T07:32:32.609Z,15.87
2018-11-05T07:35:01.241Z,17.63
2018-11-05T07:37:29.810Z,13.07
2018-11-05T07:39:58.491Z,17.70
2018-11-05T07:42:27.445Z,20.13
2018-11-05T07:44:55.948Z,19.13
2018-11-05T07:47:24.876Z,23.17
2018-11-05T07:49:53.854Z,24.23
2018-11-05T07:52:22.763Z,24.83
2018-11-05T07:54:51.313Z,20.03
2018-11-05T07:57:20.160Z,18.60
2018-11-05T07:59:48.686Z,17.33
2018-11-05T08:02:17.245Z,18.20
2018-11-05T08:04:45.981Z,21.30
2018-11-05T08:07:14.805Z,18.57
2018-11-05T08:09:43.663Z,19.63
2018-11-05T08:12:12.573Z,24.10
2018-11-05T08:14:41.181Z,23.20
2018-11-05T08:17:10.000Z,21.73
2018-11-05T08:19:38.530Z,20.00
2018-11-05T08:22:07.025Z,22.47
2018-11-05T08:24:42.075Z,18.10
2018-11-05T08:27:10.597Z,18.50
2018-11-05T08:29:39.030Z,18.70
2018-11-05T08:32:08.307Z,20.57
2018-11-05T08:34:37.050Z,26.00
2018-11-05T08:37:05.627Z,23.87
2018-11-05T08:39:34.935Z,19.53
2018-11-05T08:42:03.458Z,19.00
2018-11-05T08:44:32.074Z,20.30
2018-11-05T08:47:01.401Z,21.77
2018-11-05T08:49:29.781Z,23.90
2018-11-05T08:51:58.233Z,19.00
2018-11-05T08:54:27.374Z,20.33
2018-11-05T08:56:56.037Z,22.43
2018-11-05T08:59:24.481Z,22.30
2018-11-05T09:01:53.590Z,23.70
2018-11-05T09:04:22.101Z,16.47
2018-11-05T09:06:50.555Z,20.67
2018-11-05T09:09:19.465Z,19.03
2018-11-05T09:11:48.059Z,18.80
2018-11-05T09:14:16.524Z,18.33
2018-11-05T09:16:46.056Z,22.17
2018-11-05T09:19:14.566Z,19.03
2018-11-05T09:21:43.026Z,15.13
2018-11-05T09:24:12.166Z,16.23
2018-11-05T09:26:40.742Z,17.30
2018-11-05T09:29:09.218Z,14.07
2018-11-05T09:31:38.499Z,14.20
2018-11-05T09:34:07.037Z,15.30
2018-11-05T09:36:35.551Z,10.47
2018-11-05T09:39:05.471Z,11.70
2018-11-05T09:41:33.964Z,11.53
2018-11-05T09:44:02.438Z,12.37
2018-11-05T09:46:31.748Z,11.77
2018-11-05T09:49:00.259Z,12.87
2018-11-05T09:51:28.763Z,14.87
2018-11-05T09:53:57.911Z,15.17
2018-11-05T09:56:26.618Z,13.83
2018-11-05T09:58:55.098Z,9.73
2018-11-05T10:01:24.177Z,12.20
2018-11-05T10:03:55.312Z,14.07
2018-11-05T10:06:24.538Z,8.70
2018-11-05T10:08:53.137Z,15.73
2018-11-05T10:11:21.665Z,33.67
2018-11-05T10:13:50.590Z,16.17
2018-11-05T10:16:19.279Z,9.70
2018-11-05T10:18:47.761Z,11.07
2018-11-05T10:21:16.641Z,14.00
2018-11-05T10:23:45.511Z,14.33
2018-11-05T10:26:14.086Z,10.07
2018-11-05T10:28:42.708Z,11.33
2018-11-05T10:31:15.405Z,8.87
2018-11-05T10:33:48.285Z,10.90
2018-11-05T10:36:16.754Z,14.67
2018-11-05T10:38:46.065Z,11.33
2018-11-05T10:41:14.816Z,9.30
2018-11-05T10:43:43.585Z,12.13
2018-11-05T10:46:12.321Z,32.97
2018-11-05T10:48:40.854Z,22.47
2018-11-05T10:51:09.665Z,15.97
2018-11-05T10:53:38.369Z,36.83
2018-11-05T10:56:07.058Z,26.20
2018-11-05T10:58:35.762Z,27.57
2018-11-05T11:01:09.579Z,12.70
2018-11-05T11:03:39.278Z,10.73
2018-11-05T11:06:09.257Z,10.20
2018-11-05T11:08:37.728Z,32.83
2018-11-05T11:11:06.675Z,23.67
2018-11-05T11:13:41.852Z,15.87
2018-11-05T11:16:10.517Z,11.53
2018-11-05T11:18:38.994Z,9.73
2018-11-05T11:21:07.472Z,9.80
2018-11-05T11:23:36.410Z,11.00
2018-11-05T11:26:05.095Z,9.53
2018-11-05T11:28:33.650Z,9.20
2018-11-05T11:31:03.104Z,8.23
2018-11-05T11:33:31.714Z,10.53
2018-11-05T11:36:00.192Z,12.50
2018-11-05T11:38:29.816Z,7.73
2018-11-05T11:40:58.271Z,7.87
2018-11-05T11:43:26.786Z,12.37
2018-11-05T11:45:55.534Z,12.43
2018-11-05T11:48:23.958Z,9.47
2018-11-05T11:50:52.429Z,23.57
2018-11-05T11:53:21.860Z,12.17
2018-11-05T11:55:50.541Z,10.20
2018-11-05T11:58:19.010Z,7.13
2018-11-05T12:00:47.793Z,9.57
2018-11-05T12:03:16.245Z,8.80
2018-11-05T12:05:44.806Z,8.50
2018-11-05T12:08:13.511Z,8.20
2018-11-05T12:10:42.000Z,9.33
2018-11-05T12:13:10.453Z,8.03
2018-11-05T12:15:39.400Z,8.23
2018-11-05T12:18:07.881Z,8.07
2018-11-05T12:20:36.364Z,6.93
2018-11-05T12:23:05.469Z,9.33
2018-11-05T12:25:33.919Z,7.10
2018-11-05T12:28:02.387Z,11.23
2018-11-05T12:30:31.444Z,8.20
2018-11-05T12:32:59.905Z,7.83
2018-11-05T12:35:28.398Z,13.93
2018-11-05T12:37:57.549Z,15.63
2018-11-05T12:40:26.006Z,9.37
2018-11-05T12:42:54.453Z,8.33
2018-11-05T12:45:23.669Z,7.77
2018-11-05T12:47:52.145Z,9.87
2018-11-05T12:50:22.659Z,10.10
2018-11-05T12:52:52.325Z,8.30
2018-11-05T12:55:20.814Z,9.17
2018-11-05T12:57:49.744Z,9.87
2018-11-05T13:00:20.452Z,6.93
2018-11-05T13:02:53.731Z,6.13
2018-11-05T13:05:23.287Z,8.30
2018-11-05T13:07:51.760Z,8.27
2018-11-05T13:10:20.263Z,11.03
2018-11-05T13:12:49.150Z,9.73
2018-11-05T13:15:17.691Z,8.17
2018-11-05T13:17:46.135Z,8.63
2018-11-05T13:20:16.122Z,7.37
2018-11-05T13:22:44.753Z,10.20
2018-11-05T13:25:13.314Z,9.03
2018-11-05T13:27:43.499Z,8.77
2018-11-05T13:30:13.165Z,8.93
2018-11-05T13:32:42.066Z,9.93
2018-11-05T13:35:12.321Z,10.20
2018-11-05T13:37:41.521Z,12.77
2018-11-05T13:40:12.102Z,8.87
2018-11-05T13:42:40.953Z,11.17
2018-11-05T13:45:11.066Z,14.30
2018-11-05T13:47:40.394Z,9.63
2018-11-05T13:50:09.337Z,11.43
2018-11-05T13:52:38.221Z,9.97
2018-11-05T13:55:07.714Z,9.40
2018-11-05T13:57:36.169Z,8.90
2018-11-05T14:00:06.092Z,10.33
2018-11-05T14:02:35.165Z,8.33
2018-11-05T14:05:03.823Z,9.93
2018-11-05T14:07:32.799Z,9.73
2018-11-05T14:10:01.741Z,9.17
2018-11-05T14:12:30.213Z,7.37
2018-11-05T14:14:58.933Z,7.07
2018-11-05T14:17:28.193Z,10.90
2018-11-05T14:19:56.656Z,10.97
2018-11-05T14:22:25.687Z,7.63
2018-11-05T14:24:54.253Z,8.67
2018-11-05T14:27:22.752Z,8.93
2018-11-05T14:29:51.595Z,8.37
2018-11-05T14:32:20.291Z,9.57
2018-11-05T14:34:48.811Z,9.30
2018-11-05T14:37:17.550Z,11.53
2018-11-05T14:39:46.196Z,10.97
2018-11-05T14:42:14.669Z,10.73
2018-11-05T14:44:43.547Z,9.50
2018-11-05T14:47:12.403Z,10.93
2018-11-05T14:49:40.861Z,7.63
2018-11-05T14:52:09.806Z,9.50
2018-11-05T14:54:38.786Z,7.77
2018-11-05T14:57:07.788Z,8.43
2018-11-05T14:59:36.886Z,9.13
2018-11-05T15:02:10.548Z,6.90
2018-11-05T15:04:39.355Z,7.40
2018-11-05T15:07:07.971Z,8.73
2018-11-05T15:09:36.723Z,6.83
2018-11-05T15:12:05.846Z,8.47
2018-11-05T15:14:34.369Z,11.10
2018-11-05T15:17:02.893Z,6.60
2018-11-05T15:19:32.955Z,8.83
2018-11-05T15:22:01.033Z,8.97
2018-11-05T15:24:29.545Z,9.53
2018-11-05T15:26:58.845Z,8.47
2018-11-05T15:29:27.108Z,8.57
2018-11-05T15:31:55.622Z,7.60
2018-11-05T15:34:24.399Z,7.40
2018-11-05T15:36:53.191Z,6.97
2018-11-05T15:39:22.505Z,7.70
2018-11-05T15:41:51.664Z,7.83
2018-11-05T15:44:20.135Z,8.07
2018-11-05T15:46:48.696Z,8.30
2018-11-05T15:49:17.419Z,6.93
2018-11-05T15:51:46.152Z,6.17
2018-11-05T15:54:14.621Z,5.63
2018-11-05T15:56:43.412Z,6.43
2018-11-05T15:59:11.894Z,5.60
2018-11-05T16:01:40.409Z,6.03
2018-11-05T16:04:09.291Z,5.37
2018-11-05T16:06:37.737Z,6.13
2018-11-05T16:09:08.255Z,9.17
2018-11-05T16:11:37.361Z,6.67
2018-11-05T16:14:06.212Z,6.50
2018-11-05T16:16:34.822Z,6.83
2018-11-05T16:19:03.525Z,4.90
2018-11-05T16:21:32.045Z,7.23
2018-11-05T16:24:00.529Z,5.87
2018-11-05T16:26:29.218Z,5.87
2018-11-05T16:28:57.697Z,5.13
2018-11-05T16:31:26.375Z,5.43
2018-11-05T16:33:55.291Z,7.23
2018-11-05T16:36:23.767Z,5.20
2018-11-05T16:38:52.265Z,6.17
2018-11-05T16:41:21.281Z,6.23
2018-11-05T16:43:49.730Z,6.17
2018-11-05T16:46:18.409Z,6.33
2018-11-05T16:48:47.345Z,7.37
2018-11-05T16:51:15.883Z,8.47
2018-11-05T16:53:44.418Z,7.37
2018-11-05T16:56:13.662Z,8.10
2018-11-05T16:58:42.140Z,7.63
2018-11-05T17:01:10.822Z,8.33
2018-11-05T17:03:39.273Z,7.17
2018-11-05T17:06:08.717Z,8.80
2018-11-05T17:08:37.310Z,9.03
2018-11-05T17:11:07.064Z,8.77
2018-11-05T17:13:35.666Z,8.93
2018-11-05T17:16:04.006Z,8.77
2018-11-05T17:18:32.643Z,8.97
2018-11-05T17:21:01.090Z,8.23
2018-11-05T17:23:29.620Z,7.53
2018-11-05T17:25:58.592Z,9.53
2018-11-05T17:28:26.998Z,8.70
2018-11-05T17:30:55.498Z,6.93
2018-11-05T17:33:24.658Z,7.97
2018-11-05T17:35:53.081Z,8.63
2018-11-05T17:38:21.606Z,8.57
2018-11-05T17:40:50.698Z,9.53
2018-11-05T17:43:19.153Z,9.63
2018-11-05T17:45:47.625Z,9.37
2018-11-05T17:48:16.717Z,7.83
2018-11-05T17:50:45.268Z,7.90
2018-11-05T17:53:13.816Z,9.60
2018-11-05T17:55:42.832Z,9.43
2018-11-05T17:58:11.426Z,8.93
2018-11-05T18:00:39.941Z,6.90
2018-11-05T18:03:08.745Z,7.27
2018-11-05T18:05:37.189Z,7.30
2018-11-05T18:08:05.706Z,8.10
2018-11-05T18:10:34.882Z,8.60
2018-11-05T18:13:03.558Z,7.13
2018-11-05T18:15:32.211Z,9.67
2018-11-05T18:18:01.166Z,9.47
2018-11-05T18:20:29.652Z,8.93
2018-11-05T18:22:58.162Z,9.27
2018-11-05T18:25:27.608Z,6.80
2018-11-05T18:27:56.066Z,8.07
2018-11-05T18:30:25.046Z,7.93
2018-11-05T18:32:53.796Z,6.37
2018-11-05T18:35:22.233Z,6.60
2018-11-05T18:37:52.010Z,6.67
2018-11-05T18:40:21.697Z,5.13
2018-11-05T18:42:50.213Z,7.60
2018-11-05T18:45:18.767Z,7.60
2018-11-05T18:47:47.987Z,7.40
2018-11-05T18:50:16.931Z,6.03
2018-11-05T18:52:45.749Z,7.17
2018-11-05T18:55:16.141Z,10.03
2018-11-05T18:57:44.617Z,7.23
2018-11-05T19:00:19.948Z,9.03
2018-11-05T19:02:50.164Z,6.03
2018-11-05T19:05:19.168Z,7.13
2018-11-05T19:07:48.061Z,9.53
2018-11-05T19:10:16.508Z,7.80
2018-11-05T19:12:45.005Z,6.93
2018-11-05T19:15:14.773Z,9.63
2018-11-05T19:17:44.065Z,6.90
2018-11-05T19:20:12.613Z,8.17
2018-11-05T19:22:42.167Z,8.97
2018-11-05T19:25:12.073Z,7.87
2018-11-05T19:27:41.106Z,7.13
2018-11-05T19:30:13.160Z,7.00
2018-11-05T19:32:41.599Z,7.37
2018-11-05T19:35:10.906Z,7.53
2018-11-05T19:37:39.873Z,6.17
2018-11-05T19:40:09.825Z,9.43
2018-11-05T19:42:38.628Z,6.03
2018-11-05T19:45:09.457Z,6.37
2018-11-05T19:47:38.221Z,6.53
2018-11-05T19:50:08.652Z,5.60
2018-11-05T19:52:37.652Z,9.93
2018-11-05T19:55:07.505Z,7.70
2018-11-05T19:57:36.300Z,5.60
2018-11-05T20:00:07.228Z,8.40
2018-11-05T20:02:35.792Z,7.37
2018-11-05T20:05:04.339Z,7.40
2018-11-05T20:07:33.128Z,7.03
2018-11-05T20:10:01.670Z,7.80
2018-11-05T20:12:30.151Z,6.67
2018-11-05T20:14:59.130Z,8.07
2018-11-05T20:17:27.709Z,7.83
2018-11-05T20:19:56.210Z,8.63
2018-11-05T20:22:25.392Z,6.63
2018-11-05T20:24:53.899Z,6.33
2018-11-05T20:27:22.377Z,8.17
2018-11-05T20:29:51.241Z,9.73
2018-11-05T20:32:20.257Z,7.73
2018-11-05T20:34:48.626Z,8.27
2018-11-05T20:37:17.914Z,7.70
2018-11-05T20:39:46.381Z,10.57
2018-11-05T20:42:14.841Z,9.33
2018-11-05T20:44:43.869Z,9.63
2018-11-05T20:47:12.402Z,9.70
2018-11-05T20:49:40.983Z,8.17
2018-11-05T20:52:10.158Z,8.07
2018-11-05T20:54:38.995Z,10.77
2018-11-05T20:57:07.569Z,9.47
2018-11-05T20:59:36.657Z,7.90
2018-11-05T21:02:06.674Z,6.70
2018-11-05T21:04:35.141Z,8.80
2018-11-05T21:07:03.952Z,9.23
2018-11-05T21:09:32.663Z,7.10
2018-11-05T21:12:01.175Z,9.93
2018-11-05T21:14:29.904Z,9.77
2018-11-05T21:16:58.376Z,12.90
2018-11-05T21:19:27.041Z,6.73
2018-11-05T21:21:56.291Z,9.83
2018-11-05T21:24:25.477Z,5.13
2018-11-05T21:26:53.929Z,5.07
2018-11-05T21:29:23.195Z,5.83
2018-11-05T21:31:51.631Z,7.97
2018-11-05T21:34:20.099Z,7.90
2018-11-05T21:36:49.007Z,10.23
2018-11-05T21:39:17.444Z,9.63
2018-11-05T21:41:45.934Z,7.20
2018-11-05T21:44:15.067Z,12.07
2018-11-05T21:46:43.526Z,9.67
2018-11-05T21:49:12.007Z,10.90
2018-11-05T21:51:41.086Z,8.63
2018-11-05T21:54:09.573Z,11.13
2018-11-05T21:56:38.035Z,9.57
2018-11-05T21:59:07.146Z,7.43
2018-11-05T22:01:35.572Z,7.17
2018-11-05T22:04:04.034Z,9.63
2018-11-05T22:06:32.831Z,10.13
2018-11-05T22:09:01.282Z,9.83
2018-11-05T22:11:29.775Z,10.10
2018-11-05T22:13:58.488Z,8.23
2018-11-05T22:16:26.925Z,6.97
2018-11-05T22:18:55.419Z,10.80
2018-11-05T22:21:24.528Z,11.83
2018-11-05T22:23:53.014Z,8.50
2018-11-05T22:26:21.477Z,9.67
2018-11-05T22:28:50.237Z,7.00
2018-11-05T22:31:18.723Z,11.57
2018-11-05T22:33:47.161Z,10.60
2018-11-05T22:36:15.864Z,9.37
2018-11-05T22:38:44.309Z,8.73
2018-11-05T22:41:12.802Z,8.67
2018-11-05T22:43:41.775Z,8.63
2018-11-05T22:46:10.225Z,7.63
2018-11-05T22:48:38.704Z,9.10
2018-11-05T22:51:07.978Z,12.20
2018-11-05T22:53:36.472Z,5.90
2018-11-05T22:56:05.256Z,6.43
2018-11-05T22:58:34.405Z,8.37
2018-11-05T23:01:05.953Z,9.27
2018-11-05T23:03:34.554Z,6.77
2018-11-05T23:06:03.473Z,7.33
2018-11-05T23:08:31.935Z,9.63
2018-11-05T23:11:00.683Z,7.07
2018-11-05T23:13:29.293Z,6.60
2018-11-05T23:15:57.733Z,9.00
2018-11-05T23:18:26.332Z,8.50
2018-11-05T23:20:54.889Z,8.47
2018-11-05T23:23:23.472Z,8.13
2018-11-05T23:25:52.361Z,6.33
2018-11-05T23:28:20.914Z,8.83
2018-11-05T23:30:49.349Z,7.60
2018-11-05T23:33:18.265Z,7.77
2018-11-05T23:35:47.076Z,6.73
2018-11-05T23:38:15.520Z,6.33
2018-11-05T23:40:44.289Z,7.43
2018-11-05T23:43:12.857Z,9.03
2018-11-05T23:45:41.335Z,5.53
2018-11-05T23:48:10.264Z,8.60
2018-11-05T23:50:39.253Z,6.57
2018-11-05T23:53:07.685Z,6.37
2018-11-05T23:55:36.262Z,5.20
2018-11-05T23:58:04.946Z,6.60
